Time;durP1;ratioP1;P1;durP2;ratioP2;P2;SDS_P1;SDS_P2;PMS_P1;PMS_P2;Temp;Humidity;BMP_temperature;BMP_pressure;BME280_temperature;BME280_humidity;BME280_pressure;Samples;Min_cycle;Max_cycle;Signal;HPM_P1;HPM_P2
2022/01/31 00:00:29;;;;;;;;;;;;;;;-1.91;100.00;96139.16;1019709;29;19962;-70
2022/01/31 00:01:00;;;;;;;;;;;;;;;-1.88;100.00;96140.56;1023606;29;19922;-70
2022/01/31 00:01:30;;;;;;;;;;;;;;;-1.87;100.00;96139.63;1023560;28;19910;-70
2022/01/31 00:02:00;;;;;;;;;;;;;;;-1.87;100.00;96134.47;1023358;29;19931;-70
2022/01/31 00:02:30;;;;;;;;;;;;;;;-1.83;100.00;96140.84;1023440;29;20459;-70
2022/01/31 00:03:02;;;;;;;;;;;;;;;-1.84;100.00;96135.91;1023215;28;19918;-69
2022/01/31 00:03:34;;;;;;;;;;;;;;;-1.83;100.00;96135.72;1023627;28;19967;-69
2022/01/31 00:04:04;;;;;;;;;;;;;;;-1.79;100.00;96131.81;1031496;28;19928;-70
2022/01/31 00:04:34;;;;;;;;;;;;;;;-1.70;100.00;96135.91;1031562;28;19914;-69
2022/01/31 00:05:05;;;;;;;;;;;;;;;-1.64;100.00;96138.75;1031550;28;19914;-70
2022/01/31 00:05:35;;;;;;;;;;;;;;;-1.62;100.00;96144.53;1027667;28;19927;-70
2022/01/31 00:06:05;;;;;;;;;;;;;;;-1.56;100.00;96143.81;1027463;28;19918;-69
2022/01/31 00:06:36;;;;;;;;;;;;;;;-1.56;100.00;96147.19;1023295;28;19915;-69
2022/01/31 00:07:06;;;;;;;;;;;;;;;-1.54;100.00;96142.69;1023892;29;19915;-70
2022/01/31 00:07:36;;;;;;;;;;;;;;;-1.53;100.00;96143.47;1019602;29;19922;-69
2022/01/31 00:08:07;;;;;;;;;;;;;;;-1.53;100.00;96146.03;1015935;29;19943;-70
2022/01/31 00:08:37;;;;;;;;;;;;;;;-1.49;100.00;96144.72;1023315;29;19910;-70
2022/01/31 00:09:14;;;;;;;;;;;;;;;-1.50;100.00;96145.69;1023762;28;19920;-70
2022/01/31 00:09:45;;;;;;;;;;;;;;;-1.49;100.00;96142.13;1027635;28;19906;-70
2022/01/31 00:10:21;;;;;;;;;;;;;;;-1.51;100.00;96144.91;1028400;28;19914;-69
2022/01/31 00:10:51;;;;;;;;;;;;;;;-1.53;100.00;96141.69;1023661;29;19913;-69
2022/01/31 00:11:22;;;;;;;;;;;;;;;-1.48;100.00;96136.78;1023530;29;19918;-70
2022/01/31 00:12:00;;;;;;;;;;;;;;;-1.52;100.00;96142.47;1015522;29;19908;-70
2022/01/31 00:12:33;;;;;;;;;;;;;;;-1.54;100.00;96139.28;1015406;29;19918;-70
2022/01/31 00:13:07;;;;;;;;;;;;;;;-1.54;100.00;96137.53;1015150;29;19919;-70
2022/01/31 00:13:43;;;;;;;;;;;;;;;-1.56;100.00;96125.81;1017516;29;20301;-70
2022/01/31 00:14:30;;;;;;;;;;;;;;;-1.58;100.00;96128.53;1023712;28;19926;-70
2022/01/31 00:15:03;;;;;;;;;;;;;;;-1.60;100.00;96130.50;1023519;29;20002;-67
2022/01/31 00:15:38;;;;;;;;;;;;;;;-1.59;100.00;96116.66;1027095;28;20715;-70
2022/01/31 00:16:13;;;;;;;;;;;;;;;-1.61;100.00;96113.47;1027411;28;19917;-69
2022/01/31 00:16:44;;;;;;;;;;;;;;;-1.60;100.00;96109.13;1028870;28;19911;-69
2022/01/31 00:17:14;;;;;;;;;;;;;;;-1.62;100.00;96106.72;1031495;28;19914;-70
2022/01/31 00:17:44;;;;;;;;;;;;;;;-1.60;100.00;96109.94;1027518;28;20768;-70
2022/01/31 00:18:15;;;;;;;;;;;;;;;-1.62;100.00;96106.72;1023449;29;19910;-69
2022/01/31 00:18:45;;;;;;;;;;;;;;;-1.60;100.00;96097.06;1019016;29;19915;-70
2022/01/31 00:19:15;;;;;;;;;;;;;;;-1.60;100.00;96098.84;1019635;29;19946;-69
2022/01/31 00:19:46;;;;;;;;;;;;;;;-1.59;100.00;96096.09;1019503;29;19911;-70
2022/01/31 00:20:16;;;;;;;;;;;;;;;-1.54;100.00;96082.66;1019481;29;19911;-69
2022/01/31 00:20:46;;;;;;;;;;;;;;;-1.53;100.00;96084.28;1023593;29;20417;-70
2022/01/31 00:21:17;;;;;;;;;;;;;;;-1.56;100.00;96085.44;1022314;29;19907;-70
2022/01/31 00:21:47;;;;;;;;;;;;;;;-1.56;100.00;96088.00;1023579;29;19951;-69
2022/01/31 00:22:18;;;;;;;;;;;;;;;-1.58;100.00;96084.00;1023512;28;19934;-70
2022/01/31 00:22:48;;;;;;;;;;;;;;;-1.57;100.00;96083.06;1022664;28;19917;-68
2022/01/31 00:23:18;;;;;;;;;;;;;;;-1.54;100.00;96088.66;1023620;29;19919;-70
2022/01/31 00:23:48;;;;;;;;;;;;;;;-1.52;100.00;96083.31;1019336;29;19915;-70
2022/01/31 00:24:19;;;;;;;;;;;;;;;-1.46;100.00;96082.59;1019644;29;20502;-69
2022/01/31 00:24:49;;;;;;;;;;;;;;;-1.51;100.00;96057.41;1023730;29;19918;-69
2022/01/31 00:25:19;;;;;;;;;;;;;;;-1.36;100.00;96080.53;1023200;28;19910;-70
2022/01/31 00:25:50;;;;;;;;;;;;;;;-1.37;100.00;96068.66;1027682;28;20134;-70
2022/01/31 00:26:20;;;;;;;;;;;;;;;-1.37;100.00;96068.66;1027435;28;19937;-69
2022/01/31 00:26:50;;;;;;;;;;;;;;;-1.40;100.00;96066.44;1027406;28;19914;-69
2022/01/31 00:27:21;;;;;;;;;;;;;;;-1.35;100.00;96066.69;1027476;28;19933;-70
2022/01/31 00:27:51;;;;;;;;;;;;;;;-1.33;100.00;96072.47;1027536;28;19910;-69
2022/01/31 00:28:21;;;;;;;;;;;;;;;-1.32;100.00;96070.69;1027501;28;19914;-70
2022/01/31 00:28:51;;;;;;;;;;;;;;;-1.29;100.00;96076.28;1027484;28;19945;-69
2022/01/31 00:29:22;;;;;;;;;;;;;;;-1.28;100.00;96075.28;1027431;28;19907;-69
2022/01/31 00:29:52;;;;;;;;;;;;;;;-1.25;100.00;96072.34;1027764;28;19929;-70
2022/01/31 00:30:22;;;;;;;;;;;;;;;-1.26;100.00;96065.63;1023358;28;19953;-70
2022/01/31 00:30:53;;;;;;;;;;;;;;;-1.26;100.00;96069.97;1019454;29;19911;-69
2022/01/31 00:31:23;;;;;;;;;;;;;;;-1.27;100.00;96071.75;1023549;28;20434;-69
2022/01/31 00:31:53;;;;;;;;;;;;;;;-1.25;100.00;96074.94;1023548;29;19913;-69
2022/01/31 00:32:25;;;;;;;;;;;;;;;-1.24;100.00;96068.81;1027448;28;19953;-69
2022/01/31 00:32:55;;;;;;;;;;;;;;;-1.27;100.00;96069.19;1026978;28;19910;-70
2022/01/31 00:33:26;;;;;;;;;;;;;;;-1.28;100.00;96066.78;1027510;28;19961;-70
2022/01/31 00:33:56;;;;;;;;;;;;;;;-1.29;100.00;96076.28;1027888;28;19906;-70
2022/01/31 00:34:26;;;;;;;;;;;;;;;-1.32;100.00;96071.47;1029159;28;19994;-69
2022/01/31 00:34:57;;;;;;;;;;;;;;;-1.33;100.00;96080.19;1031597;28;19917;-70
2022/01/31 00:35:27;;;;;;;;;;;;;;;-1.38;100.00;96072.19;1035370;28;19905;-70
2022/01/31 00:35:58;;;;;;;;;;;;;;;-1.40;100.00;96061.31;1031002;28;20454;-69
2022/01/31 00:36:28;;;;;;;;;;;;;;;-1.42;100.00;96065.81;1023548;28;19914;-70
2022/01/31 00:36:58;;;;;;;;;;;;;;;-1.43;100.00;96056.50;1019627;29;19914;-69
2022/01/31 00:37:29;;;;;;;;;;;;;;;-1.41;100.00;96062.25;1019588;29;19990;-69
2022/01/31 00:37:59;;;;;;;;;;;;;;;-1.43;100.00;96059.09;1023561;28;20300;-70
2022/01/31 00:38:29;;;;;;;;;;;;;;;-1.44;100.00;96073.72;1031734;28;19914;-70
2022/01/31 00:38:59;;;;;;;;;;;;;;;-1.44;100.00;96067.78;1031504;28;19926;-70
2022/01/31 00:39:34;;;;;;;;;;;;;;;-1.48;100.00;96072.47;1031186;28;19910;-69
2022/01/31 00:40:04;;;;;;;;;;;;;;;-1.50;100.00;96074.44;1031057;28;19906;-70
2022/01/31 00:40:38;;;;;;;;;;;;;;;-1.52;100.00;96073.00;1031223;28;19958;-70
2022/01/31 00:41:08;;;;;;;;;;;;;;;-1.55;100.00;96071.59;1032536;28;19913;-70
2022/01/31 00:41:39;;;;;;;;;;;;;;;-1.54;100.00;96074.94;1035392;28;20488;-70
2022/01/31 00:42:09;;;;;;;;;;;;;;;-1.57;100.00;96073.56;1031647;28;19933;-70
2022/01/31 00:42:39;;;;;;;;;;;;;;;-1.56;100.00;96071.78;1027033;28;19963;-69
2022/01/31 00:43:12;;;;;;;;;;;;;;;-1.57;100.00;96070.19;1026778;28;19918;-70
2022/01/31 00:43:48;;;;;;;;;;;;;;;-1.56;100.00;96070.00;1023717;28;20498;-70
2022/01/31 00:44:30;;;;;;;;;;;;;;;-1.57;100.00;96062.47;1024836;28;20380;-70
2022/01/31 00:45:58;;;;;;;;;;;;;;;-1.60;100.00;96055.09;1026746;28;20400;-70
2022/01/31 00:46:40;;;;;;;;;;;;;;;-1.62;100.00;96060.41;1031280;28;20364;-70
2022/01/31 00:47:21;;;;;;;;;;;;;;;-1.61;100.00;96066.34;1035428;28;20038;-70
2022/01/31 00:48:01;;;;;;;;;;;;;;;-1.62;100.00;96055.28;1027266;28;19915;-70
2022/01/31 00:48:39;;;;;;;;;;;;;;;-1.62;100.00;96064.75;1027207;28;20004;-70
2022/01/31 00:49:16;;;;;;;;;;;;;;;-1.58;100.00;96060.84;1027336;28;20399;-70
2022/01/31 00:50:04;;;;;;;;;;;;;;;-1.55;100.00;96065.66;1030630;28;20411;-70
2022/01/31 00:50:39;;;;;;;;;;;;;;;-1.53;100.00;96067.06;1027419;28;19910;-70
2022/01/31 00:51:09;;;;;;;;;;;;;;;-1.53;100.00;96068.84;1027555;28;19997;-70
2022/01/31 00:51:39;;;;;;;;;;;;;;;-1.52;100.00;96071.22;1030134;28;20343;-70
2022/01/31 00:52:10;;;;;;;;;;;;;;;-1.51;100.00;96072.03;1032055;28;20083;-70
2022/01/31 00:52:40;;;;;;;;;;;;;;;-1.51;100.00;96064.31;1035100;28;20516;-69
2022/01/31 00:53:11;;;;;;;;;;;;;;;-1.49;100.00;96070.09;1031102;28;19910;-69
2022/01/31 00:53:43;;;;;;;;;;;;;;;-1.49;100.00;96070.09;1027251;28;19910;-70
2022/01/31 00:54:13;;;;;;;;;;;;;;;-1.48;100.00;96063.94;1027088;28;19911;-70
2022/01/31 00:54:44;;;;;;;;;;;;;;;-1.48;100.00;96062.16;1027270;28;19921;-70
2022/01/31 00:55:14;;;;;;;;;;;;;;;-1.48;100.00;96059.59;1027544;28;19938;-70
2022/01/31 00:55:44;;;;;;;;;;;;;;;-1.46;100.00;96059.44;1027273;28;19910;-69
2022/01/31 00:56:15;;;;;;;;;;;;;;;-1.45;100.00;96055.88;1019394;29;20218;-70
2022/01/31 00:56:45;;;;;;;;;;;;;;;-1.45;100.00;96056.66;1019229;29;19966;-70
2022/01/31 00:57:15;;;;;;;;;;;;;;;-1.44;100.00;96044.63;1019730;29;20345;-69
2022/01/31 00:57:45;;;;;;;;;;;;;;;-1.44;100.00;96045.41;1023496;28;19918;-70
2022/01/31 00:58:16;;;;;;;;;;;;;;;-1.42;100.00;96045.22;1031000;28;19910;-69
2022/01/31 00:58:46;;;;;;;;;;;;;;;-1.42;100.00;96046.03;1031682;28;20172;-70
2022/01/31 00:59:16;;;;;;;;;;;;;;;-1.42;100.00;96040.09;1031286;28;20338;-69
2022/01/31 00:59:50;;;;;;;;;;;;;;;-1.41;100.00;96041.66;1030947;28;20063;-69
2022/01/31 01:00:21;;;;;;;;;;;;;;;-1.38;100.00;96040.50;1027628;28;19914;-70
2022/01/31 01:00:51;;;;;;;;;;;;;;;-1.38;100.00;96036.16;1027398;28;19914;-70
2022/01/31 01:01:21;;;;;;;;;;;;;;;-1.37;100.00;96035.22;1028151;28;19917;-71
2022/01/31 01:01:52;;;;;;;;;;;;;;;-1.35;100.00;96033.22;1031232;28;19976;-70
2022/01/31 01:02:22;;;;;;;;;;;;;;;-1.35;100.00;96030.66;1031197;28;20372;-70
2022/01/31 01:02:52;;;;;;;;;;;;;;;-1.35;100.00;96030.66;1030883;28;19954;-69
2022/01/31 01:03:23;;;;;;;;;;;;;;;-1.34;100.00;96031.44;1031147;28;19906;-69
2022/01/31 01:03:53;;;;;;;;;;;;;;;-1.36;100.00;96034.22;1023342;29;19917;-70
2022/01/31 01:04:23;;;;;;;;;;;;;;;-1.35;100.00;96037.59;1027473;28;19914;-69
2022/01/31 01:04:54;;;;;;;;;;;;;;;-1.34;100.00;96037.41;1027233;28;20368;-70
2022/01/31 01:05:24;;;;;;;;;;;;;;;-1.35;100.00;96035.81;1027560;28;19914;-70
2022/01/31 01:05:54;;;;;;;;;;;;;;;-1.35;100.00;96040.16;1035493;28;20319;-70
2022/01/31 01:06:24;;;;;;;;;;;;;;;-1.36;100.00;96039.38;1031460;28;19960;-70
2022/01/31 01:06:55;;;;;;;;;;;;;;;-1.33;100.00;96045.94;1031126;28;19917;-70
2022/01/31 01:07:26;;;;;;;;;;;;;;;-1.32;100.00;96035.44;1031415;28;19917;-70
2022/01/31 01:07:56;;;;;;;;;;;;;;;-1.33;100.00;96033.84;1027377;28;20399;-70
2022/01/31 01:08:26;;;;;;;;;;;;;;;-1.30;100.00;96036.06;1031186;28;20371;-70
2022/01/31 01:08:57;;;;;;;;;;;;;;;-1.29;100.00;96037.66;1031206;28;19914;-69
2022/01/31 01:09:27;;;;;;;;;;;;;;;-1.29;100.00;96035.09;1031248;28;19910;-70
2022/01/31 01:09:57;;;;;;;;;;;;;;;-1.27;100.00;96040.06;1031139;28;20367;-69
2022/01/31 01:10:27;;;;;;;;;;;;;;;-1.26;100.00;96034.72;1027302;28;19913;-70
2022/01/31 01:10:58;;;;;;;;;;;;;;;-1.24;100.00;96026.81;1027123;28;19914;-70
2022/01/31 01:11:28;;;;;;;;;;;;;;;-1.42;100.00;96001.47;1027299;28;20177;-69
2022/01/31 01:11:58;;;;;;;;;;;;;;;-1.23;100.00;96041.31;1027177;28;19961;-70
2022/01/31 01:12:29;;;;;;;;;;;;;;;-1.21;100.00;96042.72;1035266;28;19909;-69
2022/01/31 01:12:59;;;;;;;;;;;;;;;-1.17;100.00;96044.91;1034624;28;19909;-69
2022/01/31 01:13:29;;;;;;;;;;;;;;;-1.17;100.00;96044.91;1035156;28;20332;-69
2022/01/31 01:14:00;;;;;;;;;;;;;;;-1.15;100.00;96045.53;1031481;28;19914;-70
2022/01/31 01:14:30;;;;;;;;;;;;;;;-1.16;100.00;96047.31;1027222;28;19923;-70
2022/01/31 01:15:00;;;;;;;;;;;;;;;-1.19;100.00;96035.59;1023208;28;19915;-70
2022/01/31 01:15:31;;;;;;;;;;;;;;;-1.17;100.00;96038.00;1027275;28;19925;-70
2022/01/31 01:16:01;;;;;;;;;;;;;;;-1.17;100.00;96042.34;1027351;28;19914;-70
2022/01/31 01:16:31;;;;;;;;;;;;;;;-1.15;100.00;96035.25;1031396;28;19925;-70
2022/01/31 01:17:01;;;;;;;;;;;;;;;-1.13;100.00;96033.28;1031050;28;19906;-70
2022/01/31 01:17:32;;;;;;;;;;;;;;;-1.12;100.00;96029.72;1031020;28;19910;-70
2022/01/31 01:18:02;;;;;;;;;;;;;;;-1.12;100.00;96022.78;1031482;28;19964;-70
2022/01/31 01:18:32;;;;;;;;;;;;;;;-1.11;100.00;96021.00;1027054;28;20021;-70
2022/01/31 01:19:03;;;;;;;;;;;;;;;-1.08;100.00;96020.66;1023370;29;19921;-68
2022/01/31 01:19:33;;;;;;;;;;;;;;;-1.04;100.00;96011.56;1023295;29;19910;-70
2022/01/31 01:20:04;;;;;;;;;;;;;;;-1.04;100.00;96021.88;1019518;28;20385;-70
2022/01/31 01:20:34;;;;;;;;;;;;;;;-1.06;100.00;96029.78;1023385;28;19949;-70
2022/01/31 01:21:04;;;;;;;;;;;;;;;-1.06;100.00;96024.66;1023267;29;19926;-69
2022/01/31 01:21:35;;;;;;;;;;;;;;;-1.07;100.00;96012.75;1023017;28;20332;-69
2022/01/31 01:22:05;;;;;;;;;;;;;;;-1.06;100.00;96018.72;1027275;28;19918;-70
2022/01/31 01:22:35;;;;;;;;;;;;;;;-1.06;100.00;96016.13;1027134;28;19910;-70
2022/01/31 01:23:06;;;;;;;;;;;;;;;-1.04;100.00;96021.88;1022687;29;19914;-70
2022/01/31 01:23:36;;;;;;;;;;;;;;;-1.04;100.00;96009.00;1024000;28;19915;-70
2022/01/31 01:24:06;;;;;;;;;;;;;;;-1.02;100.00;96005.28;1027731;28;20309;-70
2022/01/31 01:24:37;;;;;;;;;;;;;;;-1.02;100.00;96000.13;1023479;28;20167;-70
2022/01/31 01:25:08;;;;;;;;;;;;;;;-0.99;100.00;96004.13;1027304;28;20404;-70
2022/01/31 01:25:38;;;;;;;;;;;;;;;-0.97;100.00;96007.31;1026879;28;19922;-69
2022/01/31 01:26:08;;;;;;;;;;;;;;;-0.96;100.00;96008.91;1023590;28;19929;-70
2022/01/31 01:26:39;;;;;;;;;;;;;;;-0.95;100.00;96000.19;1031311;28;19915;-70
2022/01/31 01:27:10;;;;;;;;;;;;;;;-1.13;100.00;95966.34;1031144;28;19920;-70
2022/01/31 01:27:42;;;;;;;;;;;;;;;-0.95;100.00;96000.97;1027305;28;19965;-70
2022/01/31 01:28:12;;;;;;;;;;;;;;;-0.94;100.00;95991.47;1031260;28;19921;-70
2022/01/31 01:28:45;;;;;;;;;;;;;;;-0.94;100.00;95983.75;1027228;28;19937;-69
2022/01/31 01:29:15;;;;;;;;;;;;;;;-0.92;100.00;95988.72;1027160;28;19918;-70
2022/01/31 01:29:46;;;;;;;;;;;;;;;-0.92;100.00;95988.72;1023039;29;20413;-70
2022/01/31 01:30:16;;;;;;;;;;;;;;;-0.91;100.00;95983.38;1023787;28;19906;-70
2022/01/31 01:30:47;;;;;;;;;;;;;;;-0.90;100.00;95982.41;1027114;28;19910;-70
2022/01/31 01:31:18;;;;;;;;;;;;;;;-0.90;100.00;95972.13;1031451;28;20052;-70
2022/01/31 01:31:49;;;;;;;;;;;;;;;-0.87;100.00;95971.75;1035247;28;20382;-70
2022/01/31 01:32:19;;;;;;;;;;;;;;;-0.87;100.00;95974.31;1035260;28;20418;-70
2022/01/31 01:33:04;;;;;;;;;;;;;;;-0.87;100.00;95976.06;1034842;28;19920;-70
2022/01/31 01:33:39;;;;;;;;;;;;;;;-0.85;100.00;95966.41;1031313;28;20276;-70
2022/01/31 01:34:09;;;;;;;;;;;;;;;-0.86;100.00;95970.75;1031185;28;19917;-70
2022/01/31 01:34:39;;;;;;;;;;;;;;;-0.87;100.00;95961.44;1027184;28;19914;-70
2022/01/31 01:35:09;;;;;;;;;;;;;;;-0.87;100.00;95961.44;1027840;28;20400;-69
2022/01/31 01:35:40;;;;;;;;;;;;;;;-0.87;100.00;95965.78;1031284;28;20221;-70
2022/01/31 01:36:10;;;;;;;;;;;;;;;-0.86;100.00;95963.03;1031033;28;20165;-70
2022/01/31 01:36:43;;;;;;;;;;;;;;;-0.85;100.00;95959.47;1031207;28;19914;-69
2022/01/31 01:37:13;;;;;;;;;;;;;;;-0.86;100.00;95957.09;1035770;28;19914;-70
2022/01/31 01:37:43;;;;;;;;;;;;;;;-0.88;100.00;95949.53;1035973;28;19914;-70
2022/01/31 01:38:16;;;;;;;;;;;;;;;-0.89;100.00;95942.00;1036260;28;19909;-70
2022/01/31 01:38:46;;;;;;;;;;;;;;;-0.88;100.00;95944.38;1039836;28;19920;-70
2022/01/31 01:39:17;;;;;;;;;;;;;;;-0.88;100.00;95941.00;1039608;28;19910;-71
2022/01/31 01:39:47;;;;;;;;;;;;;;;-0.88;100.00;95939.22;1039405;28;19941;-70
2022/01/31 01:40:17;;;;;;;;;;;;;;;-0.89;100.00;95935.06;1031507;28;20262;-70
2022/01/31 01:40:48;;;;;;;;;;;;;;;-0.89;100.00;95940.22;1031550;28;19931;-70
2022/01/31 01:41:18;;;;;;;;;;;;;;;-0.88;100.00;95941.00;1031258;28;19937;-70
2022/01/31 01:41:48;;;;;;;;;;;;;;;-0.89;100.00;95937.63;1031620;28;19938;-70
2022/01/31 01:42:18;;;;;;;;;;;;;;;-0.89;100.00;95940.22;1034122;28;19938;-70
2022/01/31 01:42:49;;;;;;;;;;;;;;;-0.91;100.00;95942.16;1030989;28;20418;-69
2022/01/31 01:43:19;;;;;;;;;;;;;;;-0.90;100.00;95936.06;1031591;28;20526;-70
2022/01/31 01:43:49;;;;;;;;;;;;;;;-0.90;100.00;95935.25;1027704;28;19914;-70
2022/01/31 01:44:37;;;;;;;;;;;;;;;-0.90;100.00;95930.91;1027407;28;19914;-70
2022/01/31 01:45:07;;;;;;;;;;;;;;;-0.90;100.00;95935.25;1027580;28;19932;-69
2022/01/31 01:45:38;;;;;;;;;;;;;;;-0.91;100.00;95926.72;1025660;28;19917;-70
2022/01/31 01:46:08;;;;;;;;;;;;;;;-0.93;100.00;95927.91;1029742;28;19957;-70
2022/01/31 01:46:39;;;;;;;;;;;;;;;-0.94;100.00;95916.78;1027580;28;20360;-71
2022/01/31 01:47:09;;;;;;;;;;;;;;;-0.93;100.00;95915.81;1027493;28;20324;-69
2022/01/31 01:47:39;;;;;;;;;;;;;;;-0.94;100.00;95914.22;1031457;28;20053;-70
2022/01/31 01:48:10;;;;;;;;;;;;;;;-0.90;100.00;95915.44;1030967;28;19956;-70
2022/01/31 01:48:40;;;;;;;;;;;;;;;-0.87;100.00;95909.09;1035208;28;19909;-70
2022/01/31 01:49:10;;;;;;;;;;;;;;;-0.90;100.00;95905.16;1035433;28;20194;-70
2022/01/31 01:49:41;;;;;;;;;;;;;;;-0.91;100.00;95905.31;1031052;28;20139;-69
2022/01/31 01:50:11;;;;;;;;;;;;;;;-0.91;100.00;95907.91;1031165;28;20425;-70
2022/01/31 01:50:41;;;;;;;;;;;;;;;-0.96;100.00;95909.25;1031110;28;19914;-69
2022/01/31 01:51:12;;;;;;;;;;;;;;;-0.98;100.00;95908.63;1031212;28;19914;-70
2022/01/31 01:51:42;;;;;;;;;;;;;;;-0.97;100.00;95912.03;1031262;28;19914;-69
2022/01/31 01:52:12;;;;;;;;;;;;;;;-0.98;100.00;95910.41;1031302;28;20428;-69
2022/01/31 01:52:43;;;;;;;;;;;;;;;-0.96;100.00;95911.03;1026777;28;19906;-70
2022/01/31 01:53:13;;;;;;;;;;;;;;;-1.16;100.00;95876.59;1026788;28;19910;-70
2022/01/31 01:53:43;;;;;;;;;;;;;;;-0.96;100.00;95913.63;1023216;29;19947;-70
2022/01/31 01:54:16;;;;;;;;;;;;;;;-0.97;100.00;95905.09;1023096;29;19915;-70
2022/01/31 01:54:46;;;;;;;;;;;;;;;-0.97;100.00;95909.44;1027479;28;20008;-70
2022/01/31 01:55:16;;;;;;;;;;;;;;;-0.97;100.00;95904.31;1027082;28;19910;-69
2022/01/31 01:55:47;;;;;;;;;;;;;;;-0.97;100.00;95904.31;1022736;29;19906;-69
2022/01/31 01:56:17;;;;;;;;;;;;;;;-0.98;100.00;95907.84;1022825;29;20305;-70
2022/01/31 01:56:48;;;;;;;;;;;;;;;-0.97;100.00;95906.88;1019092;29;19910;-69
2022/01/31 01:57:18;;;;;;;;;;;;;;;-0.99;100.00;95904.47;1023750;28;20359;-69
2022/01/31 01:57:49;;;;;;;;;;;;;;;-0.96;100.00;95903.31;1027283;28;19910;-69
2022/01/31 01:58:22;;;;;;;;;;;;;;;-0.95;100.00;95902.31;1027691;28;19915;-68
2022/01/31 01:58:53;;;;;;;;;;;;;;;-0.96;100.00;95911.03;1027852;28;19914;-70
2022/01/31 01:59:23;;;;;;;;;;;;;;;-0.96;100.00;95911.03;1031990;28;19910;-69
2022/01/31 01:59:56;;;;;;;;;;;;;;;-0.96;100.00;95901.53;1035647;28;19905;-70
2022/01/31 02:00:27;;;;;;;;;;;;;;;-0.95;100.00;95897.16;1031877;28;19905;-70
2022/01/31 02:01:02;;;;;;;;;;;;;;;-0.95;100.00;95897.16;1031546;28;19916;-70
2022/01/31 02:01:32;;;;;;;;;;;;;;;-0.93;100.00;95887.50;1031857;28;19910;-69
2022/01/31 02:02:03;;;;;;;;;;;;;;;-0.90;100.00;95878.59;1027437;28;19973;-69
2022/01/31 02:02:33;;;;;;;;;;;;;;;-0.90;100.00;95873.44;1028072;28;20328;-70
2022/01/31 02:03:03;;;;;;;;;;;;;;;-0.90;100.00;95869.09;1031262;28;20296;-69
2022/01/31 02:03:34;;;;;;;;;;;;;;;-0.87;100.00;95867.91;1031541;28;19925;-69
2022/01/31 02:04:05;;;;;;;;;;;;;;;-0.88;100.00;95861.16;1035767;28;19921;-70
2022/01/31 02:04:35;;;;;;;;;;;;;;;-0.90;100.00;95858.78;1031601;28;19917;-69
2022/01/31 02:05:05;;;;;;;;;;;;;;;-0.88;100.00;95867.09;1027260;28;20283;-70
2022/01/31 02:05:36;;;;;;;;;;;;;;;-0.91;100.00;95874.41;1023839;28;19922;-70
2022/01/31 02:06:06;;;;;;;;;;;;;;;-0.92;100.00;95881.34;1023643;28;19925;-70
2022/01/31 02:06:37;;;;;;;;;;;;;;;-0.93;100.00;95878.97;1027609;28;19914;-69
2022/01/31 02:07:09;;;;;;;;;;;;;;;-0.94;100.00;95873.00;1027807;28;19926;-70
2022/01/31 02:07:39;;;;;;;;;;;;;;;-0.93;100.00;95871.25;1027490;28;19918;-69
2022/01/31 02:08:10;;;;;;;;;;;;;;;-0.91;100.00;95867.47;1023961;29;19941;-69
2022/01/31 02:08:43;;;;;;;;;;;;;;;-0.92;100.00;95872.84;1019662;29;19966;-68
2022/01/31 02:09:13;;;;;;;;;;;;;;;-0.94;100.00;95867.84;1024047;28;19926;-70
2022/01/31 02:09:45;;;;;;;;;;;;;;;-0.96;100.00;95865.47;1027671;28;19918;-69
2022/01/31 02:10:16;;;;;;;;;;;;;;;-0.96;100.00;95870.63;1028592;28;19918;-69
2022/01/31 02:10:46;;;;;;;;;;;;;;;-0.93;100.00;95868.69;1035594;28;19914;-69
2022/01/31 02:11:20;;;;;;;;;;;;;;;-0.89;100.00;95862.94;1035797;28;19921;-69
2022/01/31 02:11:54;;;;;;;;;;;;;;;-0.91;100.00;95854.59;1031367;28;20331;-69
2022/01/31 02:12:27;;;;;;;;;;;;;;;-0.92;100.00;95865.91;1031672;28;19918;-70
2022/01/31 02:13:02;;;;;;;;;;;;;;;-0.94;100.00;95852.41;1031017;28;19922;-70
2022/01/31 02:13:33;;;;;;;;;;;;;;;-0.93;100.00;95858.38;1028791;28;19925;-69
2022/01/31 02:14:04;;;;;;;;;;;;;;;-0.93;100.00;95859.16;1031738;28;19924;-69
2022/01/31 02:14:34;;;;;;;;;;;;;;;-0.93;100.00;95854.00;1027577;28;19929;-69
2022/01/31 02:15:05;;;;;;;;;;;;;;;-0.91;100.00;95852.03;1027727;28;19934;-69
2022/01/31 02:15:36;;;;;;;;;;;;;;;-0.95;100.00;95856.75;1027353;28;19941;-70
2022/01/31 02:16:06;;;;;;;;;;;;;;;-0.91;100.00;95852.03;1027789;28;19914;-70
2022/01/31 02:16:37;;;;;;;;;;;;;;;-0.91;100.00;95851.22;1023815;29;19922;-70
2022/01/31 02:17:07;;;;;;;;;;;;;;;-0.92;100.00;95853.03;1023478;28;19922;-70
2022/01/31 02:17:37;;;;;;;;;;;;;;;-0.94;100.00;95847.25;1027485;28;19952;-69
2022/01/31 02:18:08;;;;;;;;;;;;;;;-0.93;100.00;95848.06;1027692;28;19914;-70
2022/01/31 02:18:47;;;;;;;;;;;;;;;-0.93;100.00;95859.16;1031454;28;20391;-69
2022/01/31 02:19:18;;;;;;;;;;;;;;;-0.94;100.00;95852.41;1031820;28;19918;-70
2022/01/31 02:19:48;;;;;;;;;;;;;;;-0.94;100.00;95857.56;1032724;28;20551;-70
2022/01/31 02:20:18;;;;;;;;;;;;;;;-0.92;100.00;95850.44;1027461;28;19922;-69
2022/01/31 02:20:49;;;;;;;;;;;;;;;-0.94;100.00;95854.97;1023713;29;19918;-69
2022/01/31 02:21:19;;;;;;;;;;;;;;;-0.95;100.00;95853.38;1023464;29;20379;-68
2022/01/31 02:21:50;;;;;;;;;;;;;;;-0.93;100.00;95853.22;1023467;28;19922;-69
2022/01/31 02:22:20;;;;;;;;;;;;;;;-0.95;100.00;95853.38;1027505;28;19918;-68
2022/01/31 02:22:50;;;;;;;;;;;;;;;-0.94;100.00;95847.25;1030745;28;19910;-69
2022/01/31 02:23:21;;;;;;;;;;;;;;;-0.94;100.00;95847.25;1027731;28;19910;-68
2022/01/31 02:23:51;;;;;;;;;;;;;;;-0.95;100.00;95838.72;1023339;28;19911;-69
2022/01/31 02:24:21;;;;;;;;;;;;;;;-0.96;100.00;95844.09;1019719;29;19995;-69
2022/01/31 02:24:52;;;;;;;;;;;;;;;-0.96;100.00;95844.09;1023691;29;19910;-70
2022/01/31 02:25:22;;;;;;;;;;;;;;;-0.96;100.00;95841.50;1023370;29;20016;-69
2022/01/31 02:25:57;;;;;;;;;;;;;;;-0.95;100.00;95841.31;1027476;28;19922;-69
2022/01/31 02:26:27;;;;;;;;;;;;;;;-0.93;100.00;95835.97;1032089;28;20331;-69
2022/01/31 02:26:57;;;;;;;;;;;;;;;-0.93;100.00;95830.03;1035549;28;19914;-69
2022/01/31 02:27:28;;;;;;;;;;;;;;;-0.92;100.00;95829.84;1031704;28;19921;-70
2022/01/31 02:27:58;;;;;;;;;;;;;;;-0.94;100.00;95834.38;1031399;28;19972;-69
2022/01/31 02:28:30;;;;;;;;;;;;;;;-0.95;100.00;95833.56;1031661;28;20232;-70
2022/01/31 02:29:01;;;;;;;;;;;;;;;-0.95;100.00;95827.63;1023782;28;19911;-69
2022/01/31 02:29:31;;;;;;;;;;;;;;;-0.96;100.00;95828.63;1027569;28;19968;-69
2022/01/31 02:30:02;;;;;;;;;;;;;;;-0.96;100.00;95833.78;1027444;28;19914;-69
2022/01/31 02:30:32;;;;;;;;;;;;;;;-0.95;100.00;95833.56;1027616;28;19914;-69
2022/01/31 02:31:03;;;;;;;;;;;;;;;-0.95;100.00;95840.50;1035609;28;19944;-69
2022/01/31 02:31:33;;;;;;;;;;;;;;;-0.95;100.00;95836.16;1035860;28;20295;-69
2022/01/31 02:32:03;;;;;;;;;;;;;;;-0.95;100.00;95836.16;1031145;28;19914;-69
2022/01/31 02:32:34;;;;;;;;;;;;;;;-0.94;100.00;95829.22;1023325;28;19919;-70
2022/01/31 02:33:04;;;;;;;;;;;;;;;-0.95;100.00;95830.22;1023166;29;19919;-69
2022/01/31 02:33:34;;;;;;;;;;;;;;;-0.94;100.00;95829.22;1023584;29;19926;-69
2022/01/31 02:34:05;;;;;;;;;;;;;;;-0.92;100.00;95824.69;1027294;28;19961;-70
2022/01/31 02:34:36;;;;;;;;;;;;;;;-0.94;100.00;95821.50;1027586;28;19915;-70
2022/01/31 02:35:06;;;;;;;;;;;;;;;-0.89;100.00;95814.00;1027470;28;19950;-69
2022/01/31 02:35:36;;;;;;;;;;;;;;;-0.88;100.00;95814.81;1027822;28;19910;-69
2022/01/31 02:36:07;;;;;;;;;;;;;;;-0.89;100.00;95816.59;1027325;28;20391;-69
2022/01/31 02:36:37;;;;;;;;;;;;;;;-0.89;100.00;95808.06;1027615;28;19918;-70
2022/01/31 02:37:10;;;;;;;;;;;;;;;-0.87;100.00;95812.06;1027542;28;19937;-70
2022/01/31 02:37:40;;;;;;;;;;;;;;;-0.88;100.00;95804.50;1027625;28;19985;-68
2022/01/31 02:38:10;;;;;;;;;;;;;;;-0.88;100.00;95800.16;1019688;29;20376;-70
2022/01/31 02:38:41;;;;;;;;;;;;;;;-0.87;100.00;95798.34;1019426;29;19919;-69
2022/01/31 02:39:11;;;;;;;;;;;;;;;-0.87;100.00;95796.59;1019601;29;19922;-69
2022/01/31 02:39:41;;;;;;;;;;;;;;;-0.90;100.00;95796.97;1019513;29;19915;-68
2022/01/31 02:40:11;;;;;;;;;;;;;;;-0.91;100.00;95795.38;1027514;28;20394;-69
2022/01/31 02:40:42;;;;;;;;;;;;;;;-0.92;100.00;95788.63;1035418;28;19937;-69
2022/01/31 02:41:12;;;;;;;;;;;;;;;-0.94;100.00;95785.44;1035495;28;19945;-70